Time;durP1;ratioP1;P1;durP2;ratioP2;P2;SDS_P1;SDS_P2;PMS_P1;PMS_P2;Temp;Humidity;BMP_temperature;BMP_pressure;BME280_temperature;BME280_humidity;BME280_pressure;Samples;Min_cycle;Max_cycle;Signal;HPM_P1;HPM_P2
2021/12/11 00:00:19;;;;;;;13.32;9.13;;;;;;;18.58;39.55;100552.50;5041167;28;20057;-68
2021/12/11 00:02:56;;;;;;;13.75;9.63;;;;;;;18.43;39.75;100547.19;5032843;28;20033;-68
2021/12/11 00:05:22;;;;;;;12.35;8.80;;;;;;;18.48;39.68;100557.19;5039044;28;20036;-68
2021/12/11 00:07:47;;;;;;;14.38;9.50;;;;;;;18.43;39.95;100560.38;5037149;28;20041;-68
2021/12/11 00:10:30;;;;;;;14.75;8.80;;;;;;;18.36;40.02;100562.09;5039141;28;20487;-68
2021/12/11 00:13:02;;;;;;;12.95;8.77;;;;;;;18.31;39.75;100551.22;5044204;28;20057;-68
2021/12/11 00:15:33;;;;;;;13.43;8.77;;;;;;;18.29;39.97;100561.94;5039188;28;20041;-68
2021/12/11 00:18:06;;;;;;;11.55;8.60;;;;;;;18.24;40.06;100564.28;5040636;28;20057;-68
2021/12/11 00:20:34;;;;;;;12.95;9.05;;;;;;;18.23;39.83;100567.09;5035876;28;20596;-68
2021/12/11 00:23:00;;;;;;;11.90;8.85;;;;;;;18.22;40.02;100570.75;5032800;28;20100;-68
2021/12/11 00:25:27;;;;;;;13.55;9.40;;;;;;;18.21;39.95;100579.66;5034884;28;20039;-68
2021/12/11 00:28:02;;;;;;;14.35;8.60;;;;;;;18.15;40.09;100581.16;5034746;28;20570;-68
2021/12/11 00:30:33;;;;;;;13.50;8.90;;;;;;;18.13;40.15;100580.50;5034555;28;20155;-68
2021/12/11 00:33:01;;;;;;;13.93;9.35;;;;;;;18.06;40.21;100585.66;5037916;28;20029;-69
2021/12/11 00:35:28;;;;;;;12.35;9.32;;;;;;;18.06;40.23;100596.19;5039308;28;20487;-68
2021/12/11 00:38:01;;;;;;;15.82;8.55;;;;;;;18.02;40.19;100600.19;5038099;28;20038;-68
2021/12/11 00:40:27;;;;;;;13.88;9.60;;;;;;;18.02;40.24;100602.00;5037061;28;20033;-68
2021/12/11 00:42:59;;;;;;;16.58;9.20;;;;;;;17.99;40.32;100607.63;5034320;28;20037;-68
2021/12/11 00:45:32;;;;;;;12.40;8.65;;;;;;;17.87;40.54;100615.06;5034765;28;20052;-68
2021/12/11 00:48:02;;;;;;;15.27;9.30;;;;;;;17.86;40.48;100621.31;5037175;28;20037;-68
2021/12/11 00:50:30;;;;;;;;;;;;;;;17.85;40.59;100630.22;5038056;28;20047;-68
2021/12/11 00:53:09;;;;;;;13.13;8.48;;;;;;;17.89;40.31;100628.06;5038030;28;19916;-68
2021/12/11 00:55:39;;;;;;;13.02;9.10;;;;;;;17.87;40.27;100627.41;5039499;28;20047;-68
2021/12/11 00:58:13;;;;;;;13.70;8.05;;;;;;;17.84;40.27;100641.75;5039451;28;20033;-68
2021/12/11 01:00:46;;;;;;;13.40;9.35;;;;;;;17.77;40.56;100646.91;5034612;28;20032;-68
2021/12/11 01:03:15;;;;;;;11.98;8.40;;;;;;;17.80;40.35;100653.63;5031776;28;20668;-68
2021/12/11 01:05:44;;;;;;;12.50;8.63;;;;;;;17.73;40.50;100660.56;5037574;28;20042;-68
2021/12/11 01:08:39;;;;;;;11.57;7.93;;;;;;;17.74;40.44;100667.47;5039624;28;20037;-68
2021/12/11 01:11:21;;;;;;;11.93;8.27;;;;;;;17.71;40.46;100673.88;5036318;28;20421;-68
2021/12/11 01:14:05;;;;;;;11.23;7.78;;;;;;;17.67;40.74;100672.56;5039418;28;20028;-68
2021/12/11 01:16:31;;;;;;;12.40;8.23;;;;;;;17.60;40.76;100670.78;5038120;28;20040;-68
2021/12/11 01:18:59;;;;;;;12.48;7.95;;;;;;;17.65;40.41;100681.63;5038333;28;20044;-68
2021/12/11 01:24:16;;;;;;;10.98;8.15;;;;;;;17.59;40.69;100684.91;5035187;28;20474;-68
2021/12/11 01:26:48;;;;;;;12.30;7.85;;;;;;;17.53;40.74;100697.75;5036714;28;20094;-68
2021/12/11 01:29:14;;;;;;;11.73;7.78;;;;;;;17.49;40.62;100696.47;5032923;28;20228;-68
2021/12/11 01:31:40;;;;;;;11.73;7.93;;;;;;;17.51;40.87;100705.00;5038140;28;20021;-68
2021/12/11 01:34:07;;;;;;;11.52;8.23;;;;;;;17.50;40.58;100716.53;5035297;28;20503;-69
2021/12/11 01:36:34;;;;;;;11.52;8.02;;;;;;;17.47;40.75;100714.25;5038425;28;20074;-68
2021/12/11 01:39:03;;;;;;;12.88;7.90;;;;;;;17.47;40.57;100716.06;5038690;28;20526;-69
2021/12/11 01:41:29;;;;;;;12.13;8.10;;;;;;;17.50;40.66;100719.16;5035989;28;20128;-68
2021/12/11 01:43:58;;;;;;;9.85;7.50;;;;;;;17.36;40.78;100719.84;5035400;28;20021;-68
2021/12/11 01:46:26;;;;;;;11.40;7.78;;;;;;;17.39;40.87;100721.31;5038264;28;20045;-69
2021/12/11 01:49:00;;;;;;;11.65;7.22;;;;;;;17.35;40.73;100725.25;5039103;28;20094;-68
2021/12/11 01:51:40;;;;;;;13.10;8.07;;;;;;;17.35;40.74;100731.34;5037877;28;20647;-69
2021/12/11 01:54:13;;;;;;;11.88;7.13;;;;;;;17.36;40.88;100738.25;5035958;28;20557;-69
2021/12/11 01:56:42;;;;;;;11.00;7.32;;;;;;;17.40;40.73;100746.63;5037130;28;20561;-69
2021/12/11 01:59:18;;;;;;;10.90;7.30;;;;;;;17.32;40.88;100749.28;5037968;28;20037;-68
2021/12/11 02:01:57;;;;;;;10.88;7.32;;;;;;;17.30;40.83;100752.09;5036095;28;20044;-68
2021/12/11 02:04:26;;;;;;;12.80;7.65;;;;;;;17.27;40.86;100757.69;5037593;28;20087;-69
2021/12/11 02:06:53;;;;;;;11.05;6.82;;;;;;;17.22;41.03;100765.22;5036664;28;20055;-69
2021/12/11 02:09:29;;;;;;;10.13;7.35;;;;;;;17.19;41.07;100769.00;5037686;28;20530;-68
2021/12/11 02:12:11;;;;;;;11.23;7.60;;;;;;;17.16;41.11;100771.16;5036191;28;20041;-68
2021/12/11 02:14:43;;;;;;;11.05;7.15;;;;;;;17.15;41.11;100770.34;5037358;28;20158;-68
2021/12/11 02:17:24;;;;;;;9.20;6.88;;;;;;;17.16;40.84;100769.34;5036804;28;20111;-69
2021/12/11 02:19:52;;;;;;;10.75;7.13;;;;;;;17.13;40.89;100779.38;5036855;28;20033;-68
2021/12/11 02:22:23;;;;;;;11.45;7.03;;;;;;;17.14;41.04;100783.66;5036210;28;20102;-68
2021/12/11 02:24:53;;;;;;;11.27;7.50;;;;;;;17.10;40.99;100771.81;5033575;28;20048;-68
2021/12/11 02:27:27;;;;;;;9.88;7.00;;;;;;;17.11;40.92;100776.09;5037874;28;20138;-68
2021/12/11 02:30:18;;;;;;;10.60;7.13;;;;;;;17.10;40.92;100782.34;5038394;28;20580;-69
2021/12/11 02:33:06;;;;;;;9.65;6.55;;;;;;;17.09;40.87;100778.88;5034510;28;20029;-68
2021/12/11 02:36:12;;;;;;;9.23;6.55;;;;;;;17.07;40.97;100796.66;5035231;28;20029;-69
2021/12/11 02:39:02;;;;;;;8.82;6.10;;;;;;;17.09;40.84;100805.19;5036531;28;20036;-69
2021/12/11 02:41:34;;;;;;;9.35;6.55;;;;;;;17.04;41.01;100810.09;5036263;28;20115;-69
2021/12/11 02:44:12;;;;;;;10.93;6.68;;;;;;;16.99;40.86;100801.88;5036503;28;20057;-69
2021/12/11 02:46:51;;;;;;;8.30;6.70;;;;;;;17.00;41.03;100811.41;5034418;28;20044;-69
2021/12/11 02:49:27;;;;;;;7.97;6.28;;;;;;;16.95;41.00;100802.38;5033454;28;20043;-69
2021/12/11 02:52:23;;;;;;;8.25;6.28;;;;;;;17.01;40.98;100812.25;5049043;28;20075;-68
2021/12/11 02:55:08;;;;;;;10.15;6.53;;;;;;;16.98;40.97;100804.69;5034710;28;20940;-69
2021/12/11 02:57:49;;;;;;;14.20;7.32;;;;;;;16.93;41.03;100810.41;5036125;28;20139;-68
2021/12/11 03:00:21;;;;;;;9.40;6.88;;;;;;;16.92;40.96;100812.22;5035197;28;20033;-69
2021/12/11 03:02:51;;;;;;;8.57;6.35;;;;;;;16.91;40.99;100818.47;5036700;28;20402;-69
2021/12/11 03:05:22;;;;;;;10.68;7.03;;;;;;;16.90;41.05;100816.00;5038274;28;20037;-68
2021/12/11 03:07:52;;;;;;;9.68;6.75;;;;;;;16.86;41.02;100820.75;5036386;28;20176;-68
2021/12/11 03:10:23;;;;;;;11.00;7.22;;;;;;;16.91;40.85;100818.47;5037266;28;20037;-68
2021/12/11 03:12:48;;;;;;;8.98;6.43;;;;;;;16.87;40.89;100819.75;5035397;28;20045;-69
2021/12/11 03:15:16;;;;;;;9.30;6.50;;;;;;;16.82;41.07;100834.38;5037941;28;20020;-68
2021/12/11 03:17:43;;;;;;;10.20;6.60;;;;;;;16.86;41.08;100836.53;5038356;28;20041;-69
2021/12/11 03:20:13;;;;;;;9.32;6.35;;;;;;;16.79;40.95;100826.81;5040987;28;20045;-68
2021/12/11 03:22:41;;;;;;;9.02;6.13;;;;;;;16.79;41.09;100837.34;5041108;28;20342;-68
2021/12/11 03:25:10;;;;;;;9.82;6.55;;;;;;;16.76;41.11;100830.59;5038255;28;20530;-69
2021/12/11 03:27:36;;;;;;;8.48;6.25;;;;;;;16.70;41.18;100822.53;5040757;28;20047;-68
2021/12/11 03:30:08;;;;;;;8.20;6.53;;;;;;;16.76;40.75;100833.22;5042974;28;20435;-68
2021/12/11 03:32:35;;;;;;;10.82;6.35;;;;;;;16.73;41.08;100837.97;5038297;28;20051;-69
2021/12/11 03:35:03;;;;;;;9.95;6.38;;;;;;;16.75;41.08;100854.41;5038747;28;20049;-68
2021/12/11 03:37:29;;;;;;;9.25;6.13;;;;;;;16.69;41.11;100858.47;5039784;28;20564;-69
2021/12/11 03:39:55;;;;;;;8.52;5.93;;;;;;;16.71;41.02;100861.81;5040168;28;20040;-69
2021/12/11 03:42:30;;;;;;;8.18;6.07;;;;;;;16.63;41.28;100861.72;5041692;28;20036;-69
2021/12/11 03:44:56;;;;;;;8.98;6.20;;;;;;;16.69;41.13;100863.75;5034338;28;20040;-68
2021/12/11 03:47:32;;;;;;;9.45;6.25;;;;;;;16.67;41.02;100859.63;5037161;28;20037;-68
2021/12/11 03:49:58;;;;;;;9.38;6.30;;;;;;;16.69;41.06;100855.84;5038665;28;20775;-69
2021/12/11 03:52:25;;;;;;;8.27;5.97;;;;;;;16.62;41.04;100858.28;5039830;28;20044;-68
2021/12/11 03:54:54;;;;;;;8.10;6.30;;;;;;;16.59;41.11;100855.97;5040841;28;20137;-69
2021/12/11 03:57:24;;;;;;;9.20;5.47;;;;;;;16.68;41.23;100866.53;5040728;28;20082;-69
2021/12/11 03:59:50;;;;;;;;;;;;;;;16.60;41.14;100876.00;5041972;28;20339;-69
2021/12/11 04:02:21;;;;;;;10.15;6.38;;;;;;;16.66;40.94;100889.50;5040813;28;19920;-69
2021/12/11 04:04:53;;;;;;;8.30;5.50;;;;;;;16.59;41.18;100895.41;5038320;28;20037;-69
2021/12/11 04:07:25;;;;;;;6.72;5.60;;;;;;;16.53;41.30;100893.41;5038938;28;20079;-68
2021/12/11 04:09:51;;;;;;;6.80;5.00;;;;;;;16.58;41.07;100903.44;5039676;28;20072;-68
2021/12/11 04:12:19;;;;;;;6.47;4.97;;;;;;;16.51;41.33;100897.97;5037151;28;20040;-69
2021/12/11 04:14:48;;;;;;;8.73;5.40;;;;;;;16.58;41.02;100908.69;5037684;28;20020;-69
2021/12/11 04:17:18;;;;;;;8.80;5.70;;;;;;;16.57;41.08;100909.69;5041193;28;20032;-69
2021/12/11 04:19:45;;;;;;;7.85;5.55;;;;;;;16.52;41.04;100911.97;5040021;28;20045;-69
2021/12/11 04:22:12;;;;;;;9.70;5.82;;;;;;;16.54;41.17;100920.50;5033121;28;20044;-68
2021/12/11 04:24:40;;;;;;;7.18;5.63;;;;;;;16.50;41.19;100919.97;5037952;28;20037;-69
2021/12/11 04:27:09;;;;;;;7.82;5.47;;;;;;;16.44;41.27;100920.59;5037466;28;20028;-68
2021/12/11 04:29:34;;;;;;;7.78;5.65;;;;;;;16.50;41.29;100919.16;5038043;28;20040;-68
2021/12/11 04:32:02;;;;;;;9.52;5.15;;;;;;;16.48;41.16;100924.56;5056642;28;20477;-69
2021/12/11 04:34:31;;;;;;;9.98;5.78;;;;;;;16.46;41.21;100928.34;5039334;28;20051;-68
2021/12/11 04:37:03;;;;;;;8.23;5.32;;;;;;;16.45;41.23;100940.66;5039000;28;20611;-69
2021/12/11 04:39:34;;;;;;;7.60;4.88;;;;;;;16.42;41.04;100958.53;5041897;28;20482;-68
2021/12/11 04:42:11;;;;;;;8.35;5.40;;;;;;;16.42;41.24;100954.09;5028741;28;20056;-68
2021/12/11 04:44:43;;;;;;;7.32;5.00;;;;;;;16.43;41.24;100965.44;5033256;28;20156;-68
2021/12/11 04:47:27;;;;;;;11.05;5.30;;;;;;;16.42;41.23;100964.63;5031227;28;20037;-69
2021/12/11 04:49:58;;;;;;;6.80;4.60;;;;;;;16.37;41.23;100960.81;5037620;28;20893;-68
2021/12/11 04:52:33;;;;;;;6.85;5.13;;;;;;;16.37;41.14;100963.44;5039065;28;20376;-68
2021/12/11 05:05:52;;;;;;;7.78;4.90;;;;;;;16.32;41.23;101001.50;5042626;28;20044;-68
2021/12/11 05:11:06;;;;;;;7.30;5.18;;;;;;;16.49;40.79;101001.63;5036389;28;20065;-68
2021/12/11 05:13:32;;;;;;;;;;;;;;;16.61;40.63;101006.50;5037674;28;20059;-69
2021/12/11 05:16:03;;;;;;;7.85;4.47;;;;;;;16.75;40.34;101010.41;5036835;28;19921;-68
2021/12/11 05:18:31;;;;;;;7.45;4.80;;;;;;;16.87;40.11;101010.94;5038406;28;20540;-68
2021/12/11 05:21:00;;;;;;;7.50;4.80;;;;;;;16.98;40.03;101012.50;5038608;28;20033;-69
2021/12/11 05:23:27;;;;;;;8.30;4.80;;;;;;;17.18;39.82;101024.44;5038807;28;20033;-69
2021/12/11 05:25:53;;;;;;;6.47;4.20;;;;;;;17.33;39.79;101035.19;5031872;28;20087;-69
2021/12/11 05:28:18;;;;;;;6.85;4.40;;;;;;;17.48;39.53;101029.19;5038408;28;20053;-69
2021/12/11 05:30:48;;;;;;;8.20;5.07;;;;;;;17.60;39.38;101036.78;5037808;28;20036;-68
2021/12/11 05:33:16;;;;;;;5.80;4.25;;;;;;;17.70;39.38;101030.44;5039334;28;20550;-68
2021/12/11 05:35:43;;;;;;;8.05;4.68;;;;;;;17.79;39.24;101031.28;5040302;28;20040;-68
2021/12/11 05:38:10;;;;;;;7.63;4.43;;;;;;;17.88;39.33;101040.84;5038696;28;20143;-69
2021/12/11 05:40:41;;;;;;;6.00;4.20;;;;;;;17.92;39.00;101049.25;5038785;28;20116;-69
2021/12/11 05:43:07;;;;;;;6.65;4.75;;;;;;;17.98;39.17;101051.25;5037082;28;20052;-68
2021/12/11 05:45:34;;;;;;;5.63;4.03;;;;;;;18.05;39.05;101047.78;5033477;28;20045;-69
2021/12/11 05:48:01;;;;;;;9.70;4.53;;;;;;;18.11;39.17;101052.41;5036992;28;20458;-69
2021/12/11 05:50:33;;;;;;;7.38;4.07;;;;;;;18.17;39.17;101047.47;5036253;28;20052;-69
2021/12/11 05:52:58;;;;;;;5.82;4.20;;;;;;;18.21;38.99;101052.25;5034801;28;20051;-69
2021/12/11 05:55:25;;;;;;;7.35;4.57;;;;;;;18.23;38.91;101049.47;5036997;28;20040;-68
2021/12/11 05:57:55;;;;;;;7.70;4.45;;;;;;;18.29;38.87;101056.69;5034666;28;20055;-68
2021/12/11 06:00:27;;;;;;;5.45;4.10;;;;;;;18.37;38.67;101051.44;5037564;28;20529;-69
2021/12/11 06:02:53;;;;;;;6.60;4.80;;;;;;;18.42;38.91;101057.03;5037139;28;20033;-68
2021/12/11 06:05:19;;;;;;;5.25;4.22;;;;;;;18.50;38.65;101062.34;5040041;28;20036;-69
2021/12/11 06:07:44;;;;;;;4.93;4.13;;;;;;;18.52;38.53;101068.25;5036248;28;20056;-69
2021/12/11 06:10:14;;;;;;;6.10;4.35;;;;;;;18.60;38.39;101070.88;5033971;28;20041;-69
2021/12/11 06:12:40;;;;;;;6.85;4.22;;;;;;;18.68;38.36;101072.75;5035067;28;20041;-68
2021/12/11 06:15:06;;;;;;;6.85;4.57;;;;;;;18.73;38.31;101080.16;5036197;28;20065;-68
2021/12/11 06:17:33;;;;;;;6.78;3.92;;;;;;;18.80;37.79;101081.94;5034380;28;20041;-69
2021/12/11 06:20:01;;;;;;;5.82;4.30;;;;;;;18.86;37.90;101088.41;5037936;28;20033;-68
2021/12/11 06:22:30;;;;;;;5.45;4.07;;;;;;;18.90;37.91;101085.25;5037860;28;20039;-69
2021/12/11 06:24:59;;;;;;;6.78;4.57;;;;;;;18.93;37.59;101092.81;5038545;28;20029;-69
2021/12/11 06:27:26;;;;;;;6.67;4.73;;;;;;;19.02;37.74;101104.19;5039638;28;20028;-69
2021/12/11 06:29:53;;;;;;;5.53;3.78;;;;;;;19.02;37.86;101106.81;5031534;28;20037;-69
2021/12/11 06:32:18;;;;;;;5.15;3.97;;;;;;;19.06;37.70;101113.44;5031552;28;20652;-68
2021/12/11 06:34:45;;;;;;;7.53;4.53;;;;;;;19.11;37.63;101126.13;5037207;28;20037;-69
2021/12/11 06:37:14;;;;;;;6.25;4.03;;;;;;;19.15;37.53;101130.88;5034375;28;20051;-69
2021/12/11 06:39:41;;;;;;;7.57;4.32;;;;;;;19.18;37.53;101127.91;5040116;28;20060;-69
2021/12/11 06:42:09;;;;;;;6.70;4.68;;;;;;;19.21;37.55;101122.31;5037465;28;20029;-69
2021/12/11 06:44:36;;;;;;;6.43;4.05;;;;;;;19.22;37.65;101117.84;5036402;28;20045;-69
2021/12/11 06:47:05;;;;;;;6.30;4.10;;;;;;;19.24;37.37;101123.78;5038136;28;20036;-68
2021/12/11 06:49:33;;;;;;;6.97;4.22;;;;;;;19.20;37.22;101122.47;5037336;28;20625;-69
2021/12/11 06:51:59;;;;;;;5.70;4.32;;;;;;;19.27;37.43;101136.66;5034368;28;20037;-69
2021/12/11 06:54:25;;;;;;;6.07;4.07;;;;;;;19.31;37.22;101148.53;5034810;28;20150;-69
2021/12/11 06:56:52;;;;;;;5.80;4.38;;;;;;;19.32;37.10;101150.16;5037997;28;20040;-68
2021/12/11 06:59:18;;;;;;;8.40;4.72;;;;;;;19.33;37.11;101155.28;5036705;28;20049;-69
2021/12/11 07:01:44;;;;;;;7.85;4.13;;;;;;;19.36;37.00;101153.28;5037956;28;20036;-69
2021/12/11 07:04:11;;;;;;;5.85;4.03;;;;;;;19.36;37.14;101146.19;5038498;28;20532;-68
2021/12/11 07:06:45;;;;;;;6.20;4.38;;;;;;;19.32;36.96;101150.16;5034092;28;20087;-69
2021/12/11 07:09:13;;;;;;;5.57;4.20;;;;;;;19.42;37.00;101161.38;5035975;28;20614;-69
2021/12/11 07:11:43;;;;;;;6.15;3.78;;;;;;;19.42;36.93;101168.47;5037160;28;20047;-69
2021/12/11 07:14:10;;;;;;;8.40;4.30;;;;;;;19.46;36.86;101175.06;5034635;28;20658;-69
2021/12/11 07:16:36;;;;;;;5.18;3.83;;;;;;;19.43;36.81;101173.59;5035171;28;20052;-69
2021/12/11 07:19:05;;;;;;;6.28;4.28;;;;;;;19.49;36.82;101183.47;5037426;28;20037;-69
2021/12/11 07:21:31;;;;;;;6.55;4.50;;;;;;;19.50;36.88;101179.84;5039678;28;20032;-68
2021/12/11 07:23:57;;;;;;;6.03;4.13;;;;;;;19.53;36.91;101183.94;5039143;28;20037;-69
2021/12/11 07:26:31;;;;;;;5.15;3.75;;;;;;;19.54;36.78;101191.75;5038564;28;20029;-69
2021/12/11 07:29:02;;;;;;;5.78;4.28;;;;;;;19.54;36.80;101197.03;5037017;28;20033;-69
2021/12/11 07:31:28;;;;;;;6.43;4.28;;;;;;;19.55;36.67;101200.47;5030587;28;20065;-68
2021/12/11 07:33:55;;;;;;;4.95;4.03;;;;;;;19.58;36.65;101208.09;5032793;28;20513;-69
2021/12/11 07:36:21;;;;;;;6.35;3.97;;;;;;;19.60;36.68;101214.03;5032052;28;20036;-69
2021/12/11 07:38:47;;;;;;;4.93;3.72;;;;;;;19.62;36.71;101217.31;5034572;28;20052;-69
2021/12/11 07:41:15;;;;;;;4.95;3.88;;;;;;;19.61;36.54;101219.16;5032497;28;20072;-69
2021/12/11 07:43:43;;;;;;;6.20;3.95;;;;;;;19.67;36.52;101227.38;5036707;28;20037;-68
2021/12/11 07:46:13;;;;;;;5.88;3.92;;;;;;;19.68;36.59;101221.09;5036826;28;20055;-69
2021/12/11 07:48:41;;;;;;;5.03;3.55;;;;;;;19.67;36.50;101219.44;5037792;28;20210;-68
2021/12/11 07:51:07;;;;;;;6.07;3.80;;;;;;;19.65;36.33;101230.19;5034296;28;20037;-69
2021/12/11 07:53:32;;;;;;;5.65;4.03;;;;;;;19.55;36.56;101216.34;5028519;28;20098;-69
2021/12/11 07:55:59;;;;;;;5.63;4.15;;;;;;;19.59;36.56;101233.53;5031867;28;20045;-69
2021/12/11 07:58:25;;;;;;;5.28;3.85;;;;;;;19.56;36.36;101242.56;5030953;28;20052;-69
2021/12/11 08:00:51;;;;;;;7.65;4.05;;;;;;;19.52;36.40;101250.97;5031592;28;20037;-68
2021/12/11 08:03:19;;;;;;;5.28;4.18;;;;;;;19.48;36.54;101247.84;5034399;28;20060;-69
2021/12/11 08:05:47;;;;;;;6.45;4.70;;;;;;;19.47;36.27;101246.22;5038787;28;20495;-69
2021/12/11 08:08:12;;;;;;;7.32;4.07;;;;;;;19.52;36.31;101253.63;5038503;28;20504;-69
2021/12/11 08:10:43;;;;;;;7.43;4.53;;;;;;;19.54;36.26;101260.41;5038058;28;20044;-69
2021/12/11 08:13:09;;;;;;;6.78;4.65;;;;;;;19.53;36.17;101258.75;5038459;28;20694;-68
2021/12/11 08:15:36;;;;;;;6.45;4.50;;;;;;;19.57;36.42;101254.81;5034205;28;20051;-68
2021/12/11 08:18:04;;;;;;;5.82;4.15;;;;;;;19.69;36.20;101270.31;5032954;28;20037;-68
2021/12/11 08:20:32;;;;;;;5.93;4.15;;;;;;;19.71;36.30;101269.13;5032231;28;20395;-69
2021/12/11 08:22:58;;;;;;;5.28;4.50;;;;;;;19.74;36.17;101271.44;5033368;28;20537;-69
2021/12/11 08:25:27;;;;;;;6.53;4.50;;;;;;;19.76;36.40;101277.41;5038614;28;20068;-69
2021/12/11 08:27:54;;;;;;;5.22;3.97;;;;;;;19.82;36.31;101281.19;5038076;28;20021;-69
2021/12/11 08:30:20;;;;;;;5.05;3.88;;;;;;;19.80;36.68;101283.19;5038165;28;20037;-68
2021/12/11 08:32:46;;;;;;;6.25;3.75;;;;;;;19.82;36.60;101294.41;5038251;28;20490;-68
2021/12/11 08:35:13;;;;;;;6.88;4.30;;;;;;;19.79;36.64;101282.34;5036445;28;20072;-68
2021/12/11 08:37:41;;;;;;;5.60;4.00;;;;;;;19.86;36.61;101295.72;5038845;28;20559;-68
2021/12/11 08:40:12;;;;;;;6.55;4.28;;;;;;;19.85;36.53;101297.53;5038220;28;20056;-67
2021/12/11 08:42:39;;;;;;;5.82;3.95;;;;;;;19.83;36.37;101301.34;5036228;28;20589;-68
2021/12/11 08:45:09;;;;;;;5.63;3.92;;;;;;;19.79;36.50;101297.38;5038630;28;20044;-67
2021/12/11 08:47:39;;;;;;;5.85;4.13;;;;;;;19.80;36.53;101320.19;5037499;28;20270;-67
2021/12/11 08:50:09;;;;;;;5.10;4.22;;;;;;;19.80;36.39;101320.19;5040365;28;20036;-68
2021/12/11 08:52:38;;;;;;;7.90;4.47;;;;;;;19.79;36.46;101329.94;5036663;28;20036;-68
2021/12/11 08:55:05;;;;;;;;;;;;;;;19.80;36.48;101339.50;5037398;28;20695;-68
2021/12/11 08:57:36;;;;;;;6.53;4.28;;;;;;;19.82;36.32;101334.88;5036152;28;19963;-68
2021/12/11 09:00:15;;;;;;;6.45;4.30;;;;;;;19.82;36.33;101334.88;5039038;28;20033;-68
2021/12/11 09:03:11;;;;;;;5.25;4.13;;;;;;;19.85;36.39;101353.03;5032629;28;20036;-68
2021/12/11 09:05:48;;;;;;;5.53;4.03;;;;;;;19.90;36.32;101355.16;5043182;28;20037;-68
2021/12/11 09:08:31;;;;;;;7.68;4.13;;;;;;;19.90;36.28;101355.16;5037197;28;20061;-68
2021/12/11 09:11:02;;;;;;;6.90;3.90;;;;;;;19.92;36.27;101377.78;5041007;28;20147;-67
2021/12/11 09:13:45;;;;;;;5.85;3.92;;;;;;;19.90;36.25;101358.63;5040997;28;20040;-68
2021/12/11 09:16:26;;;;;;;5.20;3.88;;;;;;;19.94;36.24;101379.47;5038196;28;20045;-68
2021/12/11 09:19:12;;;;;;;7.22;3.97;;;;;;;19.92;36.16;101385.72;5042037;28;20048;-68
2021/12/11 09:21:44;;;;;;;7.00;4.30;;;;;;;19.94;36.14;101390.03;5039127;28;20037;-68
2021/12/11 09:24:13;;;;;;;6.28;4.28;;;;;;;19.94;36.02;101393.50;5042621;28;20615;-68
2021/12/11 09:27:11;;;;;;;5.85;4.43;;;;;;;19.89;36.00;101393.97;5041150;28;20032;-67
2021/12/11 09:29:53;;;;;;;6.57;4.30;;;;;;;19.85;36.01;101386.56;5027999;28;20450;-67
2021/12/11 09:32:37;;;;;;;6.68;4.50;;;;;;;19.82;36.01;101390.38;5038798;28;20090;-67
2021/12/11 09:35:09;;;;;;;6.60;4.70;;;;;;;19.83;35.98;101385.91;5040514;28;20806;-67
2021/12/11 09:37:35;;;;;;;7.13;4.45;;;;;;;19.84;35.81;101401.59;5037312;28;20041;-67
2021/12/11 09:40:07;;;;;;;7.72;4.32;;;;;;;19.84;35.76;101400.78;5038492;28;20064;-67
2021/12/11 09:42:33;;;;;;;6.15;4.22;;;;;;;19.83;36.07;101401.75;5037013;28;20813;-67
2021/12/11 09:45:06;;;;;;;6.07;4.55;;;;;;;19.85;35.70;101410.34;5035602;28;20029;-67
2021/12/11 09:47:40;;;;;;;6.30;4.50;;;;;;;19.88;35.72;101416.13;5040270;28;20133;-67
2021/12/11 09:50:11;;;;;;;6.43;3.85;;;;;;;19.91;35.51;101417.59;5032284;28;20479;-67
2021/12/11 09:52:40;;;;;;;5.90;4.25;;;;;;;19.85;35.74;101413.00;5034665;28;20398;-66
2021/12/11 09:55:14;;;;;;;4.68;3.55;;;;;;;19.81;36.09;101401.94;5038093;28;20090;-66
2021/12/11 09:57:46;;;;;;;6.82;4.35;;;;;;;19.74;36.19;101395.63;5037174;28;20033;-66
2021/12/11 10:00:26;;;;;;;7.30;4.05;;;;;;;19.77;36.26;101418.28;5040108;28;20639;-66
2021/12/11 10:02:52;;;;;;;7.15;4.13;;;;;;;19.80;36.33;101408.22;5038449;28;20029;-66
2021/12/11 10:05:44;;;;;;;4.90;3.85;;;;;;;19.83;36.32;101410.53;5041632;28;20036;-66
2021/12/11 10:11:01;;;;;;;6.75;4.13;;;;;;;19.79;36.79;101427.69;5040752;28;20113;-66
2021/12/11 10:13:31;;;;;;;5.78;3.53;;;;;;;19.71;36.81;101430.31;5041936;28;20021;-66
2021/12/11 10:15:58;;;;;;;4.95;3.92;;;;;;;19.71;36.90;101416.28;5041235;28;20029;-66
2021/12/11 10:18:26;;;;;;;5.97;3.70;;;;;;;19.74;36.72;101426.53;5039930;28;20107;-66
2021/12/11 10:20:57;;;;;;;5.15;3.40;;;;;;;19.73;36.95;101427.50;5039119;28;20040;-66
2021/12/11 10:23:28;;;;;;;5.10;3.47;;;;;;;19.72;36.77;101431.97;5039094;28;20360;-66
2021/12/11 10:25:56;;;;;;;5.22;3.60;;;;;;;19.74;36.84;101432.63;5039810;28;20394;-66
2021/12/11 10:28:27;;;;;;;3.88;3.45;;;;;;;19.71;36.74;101438.25;5039594;28;20048;-66
2021/12/11 10:31:07;;;;;;;4.80;3.70;;;;;;;19.76;36.81;101440.44;5038947;28;20044;-66
2021/12/11 10:33:34;;;;;;;5.53;3.50;;;;;;;19.70;37.03;101444.53;5036757;28;20081;-66
2021/12/11 10:36:05;;;;;;;4.93;3.35;;;;;;;19.72;37.02;101445.19;5034941;28;20049;-67
2021/12/11 10:38:31;;;;;;;4.53;2.92;;;;;;;19.77;37.00;101445.53;5039330;28;20115;-66
2021/12/11 10:41:00;;;;;;;5.18;3.47;;;;;;;19.83;37.09;101442.22;5037215;28;20650;-65
2021/12/11 10:43:30;;;;;;;4.78;3.30;;;;;;;19.89;37.03;101440.75;5050740;28;20047;-65
2021/12/11 10:45:58;;;;;;;6.43;3.25;;;;;;;19.95;37.00;101445.38;5039094;28;20124;-65
2021/12/11 10:48:27;;;;;;;4.32;3.28;;;;;;;19.94;36.90;101450.84;5039708;28;20044;-65
2021/12/11 10:51:00;;;;;;;4.20;3.40;;;;;;;19.92;37.03;101458.91;5037666;28;20140;-66
2021/12/11 10:53:28;;;;;;;5.18;3.20;;;;;;;19.93;36.88;101452.66;5038794;28;20035;-65
2021/12/11 10:55:57;;;;;;;4.60;3.45;;;;;;;19.92;36.94;101456.25;5041033;28;20037;-65
2021/12/11 10:58:27;;;;;;;3.93;3.00;;;;;;;19.96;36.81;101454.97;5040783;28;20036;-65
2021/12/11 11:01:04;;;;;;;6.70;3.35;;;;;;;19.99;36.85;101461.72;5038571;28;20455;-65
2021/12/11 11:03:35;;;;;;;5.70;3.70;;;;;;;19.96;36.92;101468.19;5042967;28;20041;-65
2021/12/11 11:06:02;;;;;;;4.55;3.33;;;;;;;19.94;36.94;101464.88;5040998;28;20044;-66
2021/12/11 11:08:29;;;;;;;4.97;3.38;;;;;;;19.92;37.03;101472.13;5040957;28;20033;-65
2021/12/11 11:11:01;;;;;;;5.57;3.53;;;;;;;19.94;36.83;101466.69;5038782;28;20051;-65
2021/12/11 11:13:27;;;;;;;4.18;3.15;;;;;;;19.90;36.88;101466.19;5037861;28;20052;-65
2021/12/11 11:15:55;;;;;;;4.68;3.33;;;;;;;19.86;37.00;101470.97;5038408;28;20036;-65
2021/12/11 11:18:23;;;;;;;4.68;3.33;;;;;;;19.83;37.04;101473.13;5037728;28;20045;-65
2021/12/11 11:20:54;;;;;;;4.95;3.10;;;;;;;19.79;36.93;101469.16;5039676;28;20029;-65
2021/12/11 11:23:20;;;;;;;5.18;3.30;;;;;;;19.75;36.96;101468.66;5038859;28;20048;-65
2021/12/11 11:25:49;;;;;;;4.57;3.25;;;;;;;19.71;37.06;101482.34;5041178;28;20503;-66
2021/12/11 11:28:19;;;;;;;4.78;3.55;;;;;;;19.69;37.20;101492.25;5040361;28;20037;-65
2021/12/11 11:30:58;;;;;;;4.75;3.30;;;;;;;19.67;37.15;101481.84;5037405;28;20115;-65
2021/12/11 11:33:26;;;;;;;4.32;3.17;;;;;;;19.63;37.07;101491.09;5039862;28;20032;-65
2021/12/11 11:35:52;;;;;;;5.88;3.42;;;;;;;19.56;37.28;101495.34;5037183;28;20052;-65
2021/12/11 11:38:22;;;;;;;4.40;3.30;;;;;;;19.54;37.05;101486.78;5039599;28;20068;-65
2021/12/11 11:40:53;;;;;;;4.60;3.47;;;;;;;19.51;37.23;101489.72;5044437;28;20107;-65
2021/12/11 11:43:19;;;;;;;4.55;3.22;;;;;;;19.45;37.35;101498.28;5043449;28;20045;-65
2021/12/11 11:45:52;;;;;;;4.68;2.88;;;;;;;19.43;37.21;101500.28;5043281;28;20033;-65
2021/12/11 11:48:19;;;;;;;4.63;3.05;;;;;;;19.45;37.28;101501.75;5043271;28;20072;-65
2021/12/11 11:50:47;;;;;;;5.53;3.22;;;;;;;19.47;37.07;101506.88;5044235;28;20041;-65
2021/12/11 11:53:13;;;;;;;5.53;3.40;;;;;;;19.53;37.01;101512.34;5044257;28;20450;-65
2021/12/11 11:55:46;;;;;;;4.45;3.38;;;;;;;19.52;37.00;101515.13;5037897;28;20160;-65
2021/12/11 11:58:14;;;;;;;3.85;3.22;;;;;;;19.55;37.15;101517.47;5041402;28;20410;-65